Time;durP1;ratioP1;P1;durP2;ratioP2;P2;SDS_P1;SDS_P2;PMS_P1;PMS_P2;Temp;Humidity;BMP_temperature;BMP_pressure;BME280_temperature;BME280_humidity;BME280_pressure;Samples;Min_cycle;Max_cycle;Signal;HPM_P1;HPM_P2
2023/09/13 00:09:28;;;;;;;82.25;56.20;;;14.20;99.90;;;;;;25843037;23;20062;-65
2023/09/13 00:19:30;;;;;;;86.47;59.70;;;14.00;99.90;;;;;;25842336;23;20066;-56
2023/09/13 00:29:35;;;;;;;83.03;58.30;;;14.10;99.90;;;;;;25842009;22;20058;-56
2023/09/13 00:39:37;;;;;;;95.55;64.38;;;14.10;99.90;;;;;;25841446;23;20015;-63
2023/09/13 00:49:39;;;;;;;95.45;63.88;;;14.10;99.90;;;;;;25841238;23;20323;-54
2023/09/13 00:59:41;;;;;;;97.93;65.55;;;14.10;99.90;;;;;;25840296;23;20370;-54
2023/09/13 01:09:43;;;;;;;103.25;67.40;;;14.00;99.90;;;;;;25840487;23;20054;-56
2023/09/13 01:20:03;;;;;;;105.38;69.60;;;14.10;99.90;;;;;;25839858;23;20065;-53
2023/09/13 01:30:08;;;;;;;107.28;67.53;;;14.00;99.90;;;;;;25864829;23;20023;-64
2023/09/13 01:40:10;;;;;;;100.35;65.75;;;13.90;99.90;;;;;;25839213;23;20020;-56
2023/09/13 01:50:13;;;;;;;87.32;59.92;;;13.90;99.90;;;;;;25840572;23;20082;-56
2023/09/13 02:00:15;;;;;;;87.80;58.00;;;13.80;99.90;;;;;;25838863;23;20000;-54
2023/09/13 02:10:17;;;;;;;93.35;59.85;;;13.70;99.90;;;;;;25811533;23;20011;-56
2023/09/13 02:20:19;;;;;;;75.47;54.88;;;13.60;99.90;;;;;;25812220;23;20015;-52
2023/09/13 02:30:22;;;;;;;67.90;48.05;;;13.60;99.90;;;;;;25837657;23;20027;-64
2023/09/13 02:40:24;;;;;;;62.03;44.80;;;13.60;99.90;;;;;;25785291;23;20012;-55
2023/09/13 02:50:29;;;;;;;62.67;44.78;;;13.60;99.90;;;;;;25837573;23;20300;-64
2023/09/13 03:00:31;;;;;;;61.13;45.08;;;13.40;99.90;;;;;;25838843;23;20020;-56
2023/09/13 03:10:35;;;;;;;66.82;46.70;;;13.40;99.90;;;;;;25809971;23;20004;-55
2023/09/13 03:20:40;;;;;;;70.05;48.08;;;13.40;99.90;;;;;;25783560;23;20089;-64
2023/09/13 03:30:43;;;;;;;58.20;43.72;;;13.40;99.90;;;;;;25815000;22;20498;-64
2023/09/13 03:40:45;;;;;;;60.70;44.08;;;13.60;99.90;;;;;;25843270;23;20004;-56
2023/09/13 03:50:50;;;;;;;49.95;38.20;;;13.70;99.90;;;;;;25765635;23;20012;-56
2023/09/13 04:00:52;;;;;;;58.95;43.33;;;13.70;99.90;;;;;;25814484;23;20031;-55
2023/09/13 04:10:55;;;;;;;49.25;37.53;;;13.60;99.90;;;;;;25841775;23;20008;-64
2023/09/13 04:20:57;;;;;;;47.17;37.78;;;13.70;99.90;;;;;;25842023;23;20008;-64
2023/09/13 04:30:59;;;;;;;40.40;32.78;;;13.80;99.90;;;;;;25841537;22;20016;-64
2023/09/13 04:41:03;;;;;;;45.47;33.50;;;14.00;99.90;;;;;;25841095;23;20505;-55
2023/09/13 04:51:05;;;;;;;46.25;35.72;;;14.20;99.90;;;;;;25814259;23;20393;-53
2023/09/13 05:01:08;;;;;;;42.33;32.67;;;14.30;99.90;;;;;;25814371;23;20008;-54
2023/09/13 05:11:10;;;;;;;46.88;36.53;;;14.30;99.90;;;;;;25812820;23;20030;-65
2023/09/13 05:21:12;;;;;;;41.40;32.08;;;14.50;99.90;;;;;;25839193;23;20008;-56
2023/09/13 05:31:15;;;;;;;41.58;31.20;;;14.60;99.90;;;;;;25838953;22;20004;-57
2023/09/13 05:41:18;;;;;;;36.63;30.08;;;14.80;99.90;;;;;;25838349;23;20008;-64
2023/09/13 05:51:21;;;;;;;36.17;29.05;;;15.00;99.90;;;;;;25811230;23;20122;-55
2023/09/13 06:01:25;;;;;;;37.45;29.27;;;15.10;99.90;;;;;;25838076;23;20296;-64
2023/09/13 06:11:28;;;;;;;38.92;32.85;;;15.10;99.90;;;;;;25837814;23;20008;-64
2023/09/13 06:21:31;;;;;;;46.20;35.25;;;15.10;99.90;;;;;;25837595;23;20312;-64
2023/09/13 06:31:33;;;;;;;44.90;34.95;;;15.00;99.90;;;;;;25837524;23;20012;-55
2023/09/13 06:41:35;;;;;;;43.40;31.95;;;14.90;99.90;;;;;;25838018;23;20012;-64
2023/09/13 06:51:37;;;;;;;38.88;31.27;;;15.10;99.90;;;;;;25836434;23;20062;-63
2023/09/13 07:01:40;;;;;;;22.15;18.52;;;15.30;99.90;;;;;;25840191;23;20058;-55
2023/09/13 07:11:41;;;;;;;15.77;11.63;;;15.40;99.90;;;;;;25845305;23;20315;-51
2023/09/13 07:21:43;;;;;;;19.48;14.52;;;15.40;99.90;;;;;;25844531;23;20431;-61
2023/09/13 07:31:45;;;;;;;21.85;17.20;;;15.20;99.90;;;;;;25843349;23;20331;-56
2023/09/13 07:41:47;;;;;;;23.23;17.77;;;15.30;99.90;;;;;;25816344;23;20074;-55
2023/09/13 07:51:49;;;;;;;19.35;17.27;;;15.60;99.90;;;;;;25842851;23;20004;-57
2023/09/13 08:01:51;;;;;;;22.55;19.98;;;16.30;99.90;;;;;;25842529;23;20062;-60
2023/09/13 08:11:53;;;;;;;23.25;19.45;;;17.20;99.90;;;;;;25842018;23;20015;-57
2023/09/13 08:21:55;;;;;;;21.17;18.88;;;18.00;99.90;;;;;;25841547;23;20004;-57
2023/09/13 08:31:57;;;;;;;23.83;20.98;;;18.00;99.90;;;;;;25841053;23;20008;-55
2023/09/13 08:41:59;;;;;;;24.33;18.65;;;18.00;99.90;;;;;;25840627;23;20362;-55
2023/09/13 08:52:03;;;;;;;23.27;20.35;;;18.40;99.90;;;;;;25840503;23;20008;-58
2023/09/13 09:02:06;;;;;;;16.90;15.10;;;18.80;99.90;;;;;;25841214;23;20058;-56
2023/09/13 09:12:11;;;;;;;14.70;13.20;;;19.80;99.90;;;;;;25839180;23;20106;-57
2023/09/13 09:22:15;;;;;;;16.92;14.35;;;21.10;99.90;;;;;;25838464;23;20011;-57
2023/09/13 09:32:19;;;;;;;14.18;12.73;;;21.00;99.90;;;;;;25838984;23;20411;-53
2023/09/13 09:42:21;;;;;;;17.33;15.52;;;21.60;99.90;;;;;;25811648;23;20039;-61
2023/09/13 09:52:23;;;;;;;15.05;13.20;;;22.20;99.90;;;;;;25838344;23;20016;-59
2023/09/13 10:02:31;;;;;;;13.80;12.38;;;23.10;99.90;;;;;;25811177;23;20008;-62
2023/09/13 10:12:47;;;;;;;15.90;13.77;;;22.80;99.90;;;;;;25837513;23;20015;-63
2023/09/13 10:22:50;;;;;;;11.65;10.52;;;22.40;99.90;;;;;;25879348;23;20054;-57
2023/09/13 10:32:59;;;;;;;11.63;10.52;;;22.20;99.90;;;;;;25837355;23;20404;-58
2023/09/13 10:43:04;;;;;;;9.32;7.57;;;22.40;99.90;;;;;;25843513;23;20016;-57
2023/09/13 10:53:07;;;;;;;6.97;6.15;;;22.90;99.90;;;;;;25818179;23;20004;-56
2023/09/13 11:03:11;;;;;;;13.02;11.13;;;22.80;99.90;;;;;;25844480;23;20050;-55
2023/09/13 11:13:15;;;;;;;13.52;11.88;;;23.10;99.90;;;;;;25844286;23;20004;-59
2023/09/13 11:23:21;;;;;;;12.27;10.98;;;23.50;99.90;;;;;;25843834;23;20015;-56
2023/09/13 11:33:23;;;;;;;19.23;15.65;;;24.00;99.90;;;;;;25855236;23;20011;-60
2023/09/13 11:43:31;;;;;;;13.48;12.07;;;24.10;99.90;;;;;;25842722;23;20058;-61
2023/09/13 11:53:34;;;;;;;10.65;9.55;;;24.60;99.90;;;;;;25858561;23;20066;-60
2023/09/13 12:03:43;;;;;;;11.35;10.25;;;24.00;99.90;;;;;;25842137;23;20331;-60
2023/09/13 12:13:48;;;;;;;16.48;14.40;;;25.00;99.00;;;;;;25883428;23;20008;-61
2023/09/13 12:23:51;;;;;;;17.73;14.05;;;24.80;99.90;;;;;;25841339;23;20011;-56
2023/09/13 12:33:55;;;;;;;14.63;13.13;;;24.00;99.90;;;;;;25494349;23;20018;-60
2023/09/13 12:43:59;;;;;;;15.48;13.77;;;24.50;99.90;;;;;;25467614;23;20496;-60
2023/09/13 12:54:02;;;;;;;15.75;14.15;;;25.50;99.90;;;;;;25465078;23;20432;-61
2023/09/13 13:04:09;;;;;;;15.65;13.95;;;25.70;99.90;;;;;;25466368;23;20437;-63
2023/09/13 13:14:18;;;;;;;17.35;15.05;;;25.00;99.90;;;;;;25507836;23;20101;-64
2023/09/13 13:24:21;;;;;;;17.08;15.25;;;23.40;99.90;;;;;;25507054;23;20060;-64
2023/09/13 13:34:26;;;;;;;19.73;17.60;;;22.60;99.90;;;;;;25580484;23;20020;-64
2023/09/13 13:44:28;;;;;;;18.67;16.58;;;22.70;99.90;;;;;;25588388;23;20005;-58
2023/09/13 13:54:31;;;;;;;19.65;16.05;;;23.60;99.90;;;;;;25588482;23;20038;-64
2023/09/13 14:04:36;;;;;;;13.98;12.57;;;23.80;99.90;;;;;;25587782;23;20001;-63
2023/09/13 14:14:39;;;;;;;17.33;15.60;;;23.20;99.90;;;;;;25587391;23;20036;-65
2023/09/13 14:24:41;;;;;;;18.05;15.65;;;22.50;99.90;;;;;;25535933;23;20236;-64
2023/09/13 14:34:52;;;;;;;18.10;16.17;;;21.40;99.90;;;;;;25587635;23;20020;-64
2023/09/13 14:44:56;;;;;;;21.48;18.25;;;20.50;99.90;;;;;;25586870;23;20024;-64
2023/09/13 14:54:58;;;;;;;18.55;16.65;;;20.00;99.90;;;;;;25587365;23;20009;-64
2023/09/13 15:05:01;;;;;;;15.38;13.48;;;20.30;99.90;;;;;;25587491;23;20005;-64
2023/09/13 15:15:04;;;;;;;21.95;19.42;;;19.80;99.90;;;;;;25586145;23;20008;-63
2023/09/13 15:25:08;;;;;;;26.10;22.98;;;18.80;99.90;;;;;;25590356;23;20009;-54
2023/09/13 15:35:13;;;;;;;26.48;22.83;;;18.30;99.90;;;;;;25592576;23;20005;-55
2023/09/13 15:45:21;;;;;;;23.67;21.17;;;17.90;99.90;;;;;;25607610;23;20017;-63
2023/09/13 15:55:28;;;;;;;21.50;19.20;;;18.10;99.90;;;;;;25632878;23;20032;-64
2023/09/13 16:05:32;;;;;;;20.75;18.55;;;18.20;99.90;;;;;;25593141;23;20005;-63
2023/09/13 16:15:34;;;;;;;21.92;18.38;;;18.50;99.90;;;;;;25592562;23;20436;-63
2023/09/13 16:25:39;;;;;;;21.88;19.10;;;18.20;99.90;;;;;;25565011;23;20313;-63
2023/09/13 16:35:42;;;;;;;20.60;18.35;;;17.60;99.90;;;;;;25592168;23;20427;-62
2023/09/13 16:45:45;;;;;;;29.77;25.70;;;17.20;99.90;;;;;;25591976;23;20016;-63
2023/09/13 16:55:50;;;;;;;32.38;26.25;;;16.80;99.90;;;;;;25588542;23;20059;-63
2023/09/13 17:05:55;;;;;;;32.17;28.15;;;16.50;99.90;;;;;;25590783;23;20391;-62
2023/09/13 17:15:58;;;;;;;34.58;27.67;;;16.30;99.90;;;;;;25564125;23;20051;-54
2023/09/13 17:26:05;;;;;;;28.95;25.63;;;16.10;99.90;;;;;;25589700;23;20008;-63
2023/09/13 17:36:07;;;;;;;29.77;24.75;;;16.00;99.90;;;;;;25631862;23;20001;-63
2023/09/13 17:46:10;;;;;;;37.22;29.88;;;15.90;99.90;;;;;;25588495;23;20009;-63
2023/09/13 17:56:13;;;;;;;27.75;24.63;;;15.90;99.90;;;;;;25588820;23;20005;-63
2023/09/13 18:06:17;;;;;;;27.75;22.33;;;15.90;99.90;;;;;;25562345;23;20005;-62
2023/09/13 18:16:20;;;;;;;11.48;9.13;;;15.60;99.90;;;;;;25562128;23;20495;-54
2023/09/13 18:26:25;;;;;;;9.57;8.20;;;15.50;99.90;;;;;;25583680;23;20009;-52
2023/09/13 18:36:29;;;;;;;9.68;7.80;;;15.90;99.90;;;;;;25561323;23;20043;-63
2023/09/13 18:46:32;;;;;;;10.68;8.73;;;16.00;99.90;;;;;;25587302;23;20072;-62
2023/09/13 18:56:36;;;;;;;12.75;11.32;;;16.40;99.90;;;;;;25590763;23;20005;-63
2023/09/13 19:06:43;;;;;;;13.13;10.35;;;16.20;99.90;;;;;;25634561;23;20028;-63
2023/09/13 19:16:46;;;;;;;11.23;10.13;;;16.20;99.90;;;;;;25568992;23;20005;-63
2023/09/13 19:26:52;;;;;;;13.88;12.43;;;16.20;99.90;;;;;;25542664;23;20012;-63
2023/09/13 19:36:54;;;;;;;12.07;10.65;;;16.20;99.90;;;;;;25543016;23;20012;-54
2023/09/13 19:46:57;;;;;;;16.83;13.00;;;16.20;99.90;;;;;;25591590;23;20087;-52
2023/09/13 19:57:01;;;;;;;13.90;11.60;;;16.00;99.90;;;;;;25517351;23;20005;-63
2023/09/13 20:07:05;;;;;;;13.98;12.48;;;15.80;99.90;;;;;;25492223;23;20009;-63
2023/09/13 20:17:11;;;;;;;12.35;10.85;;;15.80;99.90;;;;;;25591387;23;20067;-62
2023/09/13 20:27:14;;;;;;;12.40;10.82;;;15.90;99.90;;;;;;25592521;23;20016;-63
2023/09/13 20:37:19;;;;;;;12.35;11.02;;;16.20;99.90;;;;;;25591979;23;20056;-63
2023/09/13 20:47:34;;;;;;;12.35;10.98;;;16.30;99.90;;;;;;25591460;23;20055;-62
2023/09/13 20:57:39;;;;;;;22.45;18.60;;;16.30;99.90;;;;;;25588166;23;20319;-52
2023/09/13 21:07:42;;;;;;;31.90;27.58;;;16.10;99.90;;;;;;25539080;23;20013;-55
2023/09/13 21:17:46;;;;;;;45.38;35.80;;;16.00;99.90;;;;;;25590006;23;20005;-62
2023/09/13 21:27:49;;;;;;;64.65;43.75;;;15.70;99.90;;;;;;25588635;23;20387;-53
2023/09/13 21:37:51;;;;;;;59.67;43.75;;;15.50;99.90;;;;;;25587700;23;20036;-52
2023/09/13 21:47:57;;;;;;;44.42;35.42;;;15.30;99.90;;;;;;25563388;23;20009;-61
2023/09/13 21:58:04;;;;;;;169.18;38.92;;;15.10;99.90;;;;;;25629817;23;20005;-61
2023/09/13 22:08:07;;;;;;;186.55;30.23;;;15.00;99.90;;;;;;25590279;23;20005;-61
2023/09/13 22:18:10;;;;;;;1030.20;57.40;;;15.00;99.90;;;;;;25588254;23;20005;-60
2023/09/13 22:28:17;;;;;;;35.65;25.35;;;14.90;99.90;;;;;;25587334;23;20040;-53
2023/09/13 22:38:20;;;;;;;17.60;15.20;;;14.70;99.90;;;;;;25602505;23;20012;-62
2023/09/13 22:48:22;;;;;;;26.48;21.27;;;14.60;99.90;;;;;;25588147;23;20009;-59
2023/09/13 22:58:24;;;;;;;13.82;11.50;;;14.40;99.90;;;;;;25588016;23;20016;-61
2023/09/13 23:08:26;;;;;;;19.00;15.65;;;14.20;99.90;;;;;;25587852;23;20104;-61
2023/09/13 23:18:28;;;;;;;14.02;11.98;;;14.00;99.90;;;;;;25587178;23;20009;-53
2023/09/13 23:28:30;;;;;;;7.15;5.78;;;13.80;99.90;;;;;;25586783;23;20016;-60
2023/09/13 23:38:32;;;;;;;4.65;3.88;;;13.50;99.90;;;;;;25560037;23;20021;-61
2023/09/13 23:48:36;;;;;;;11.38;9.35;;;13.30;99.90;;;;;;25593520;23;20052;-60
2023/09/13 23:58:37;;;;;;;25.80;17.58;;;13.50;99.90;;;;;;25593761;23;20009;-51
